Terminal Aerodrome Forecast
Issued by NWS Mt. Holly, NJ

Home | Current Version | Previous Version | Text Only | Print | Product List | Glossary On
Versions: 1 2 3 4 5 6 7 8 9 10 11 12 13 14 15 16 17 18 19 20 21 22 23 24 25 26 27 28 29 30 31 32 33 34 35 36 37 38 39 40
000
FTUS41 KPHI 030051 AAB
TAFRDG
TAF AMD
KRDG 030051Z 0301/0324 05003KT P6SM -SHRA OVC025
     FM030200 02003KT 6SM BR OVC020
     FM030600 04003KT 4SM BR BKN010
     FM031500 05006KT P6SM SCT010 BKN040
     FM031800 09005KT P6SM SCT040 BKN120=

USA.gov is the U.S. government's official web portal to all federal, state and local government web resources and services.